createdAt,value
2019-06-19T00:00:52.296Z,1003.64
2019-06-19T00:05:48.102Z,1003.56
2019-06-19T00:10:45.095Z,1003.56
2019-06-19T00:15:40.321Z,1003.48
2019-06-19T00:20:36.352Z,1003.51
2019-06-19T00:25:33.647Z,1003.46
2019-06-19T00:30:32.272Z,1003.40
2019-06-19T00:35:27.293Z,1003.28
2019-06-19T00:40:23.142Z,1003.13
2019-06-19T00:45:20.730Z,1003.18
2019-06-19T00:50:16.335Z,1003.07
2019-06-19T00:55:12.229Z,1003.12
2019-06-19T01:00:07.964Z,1003.10
2019-06-19T01:05:04.824Z,1003.10
2019-06-19T01:10:01.587Z,1003.07
2019-06-19T01:14:57.267Z,1003.10
2019-06-19T01:19:53.077Z,1003.04
2019-06-19T01:24:50.952Z,1003.11
2019-06-19T01:29:46.841Z,1003.15
2019-06-19T01:34:43.449Z,1003.12
2019-06-19T01:39:40.897Z,1003.17
2019-06-19T01:44:36.572Z,1003.12
2019-06-19T01:49:33.479Z,1003.07
2019-06-19T01:54:32.020Z,1003.03
2019-06-19T01:59:30.979Z,1002.98
2019-06-19T02:04:26.161Z,1002.97
2019-06-19T02:09:22.428Z,1002.93
2019-06-19T02:14:21.027Z,1002.91
2019-06-19T02:19:20.126Z,1002.87
2019-06-19T02:24:16.582Z,1002.80
2019-06-19T02:29:12.320Z,1002.71
2019-06-19T02:34:12.259Z,1002.62
2019-06-19T02:39:07.903Z,1002.45
2019-06-19T02:44:03.784Z,1002.51
2019-06-19T02:48:59.479Z,1002.52
2019-06-19T02:53:55.274Z,1002.48
2019-06-19T02:58:50.894Z,1002.45
2019-06-19T03:03:47.328Z,1002.56
2019-06-19T03:08:42.833Z,1002.49
2019-06-19T03:13:40.518Z,1002.42
2019-06-19T03:18:36.370Z,1002.43
2019-06-19T03:23:32.160Z,1002.40
2019-06-19T03:28:28.111Z,1002.44
2019-06-19T03:33:25.357Z,1002.46
2019-06-19T03:38:21.355Z,1002.44
2019-06-19T03:43:17.145Z,1002.27
2019-06-19T03:48:13.048Z,1002.35
2019-06-19T03:53:08.989Z,1002.40
2019-06-19T03:58:04.893Z,1002.29
2019-06-19T04:03:00.798Z,1002.26
2019-06-19T04:07:56.739Z,1002.35
2019-06-19T04:12:52.711Z,1002.43
2019-06-19T04:17:48.751Z,1002.30
2019-06-19T04:22:44.638Z,1002.18
2019-06-19T04:27:40.830Z,1002.26
2019-06-19T04:32:36.668Z,1002.31
2019-06-19T04:37:33.195Z,1002.37
2019-06-19T04:42:30.718Z,1002.37
2019-06-19T04:47:28.356Z,1002.28
2019-06-19T04:52:25.550Z,1002.28
2019-06-19T04:57:22.765Z,1002.40
2019-06-19T05:02:21.567Z,1002.34
2019-06-19T05:07:17.962Z,1002.22
2019-06-19T05:12:15.247Z,1002.28
2019-06-19T05:17:11.977Z,1002.05
2019-06-19T05:22:08.724Z,1002.05
2019-06-19T05:27:06.552Z,1001.99
2019-06-19T05:32:03.848Z,1002.03
2019-06-19T05:37:00.086Z,1001.89
2019-06-19T05:41:56.752Z,1001.86
2019-06-19T05:46:53.214Z,1001.82
2019-06-19T05:51:50.317Z,1001.90
2019-06-19T05:56:45.591Z,1001.89
2019-06-19T06:01:39.899Z,1001.87
2019-06-19T06:06:35.061Z,1001.86
2019-06-19T06:11:29.450Z,1001.78
2019-06-19T06:16:24.479Z,1001.76
2019-06-19T06:21:19.753Z,1001.74
2019-06-19T06:26:15.392Z,1001.70
2019-06-19T06:31:10.954Z,1001.67
2019-06-19T06:36:06.991Z,1001.67
2019-06-19T06:41:02.702Z,1001.66
2019-06-19T06:45:58.878Z,1001.50
2019-06-19T06:50:56.288Z,1001.46
2019-06-19T06:55:51.812Z,1001.39
2019-06-19T07:00:47.659Z,1001.33
2019-06-19T07:05:43.773Z,1001.25
2019-06-19T07:10:40.024Z,1001.29
2019-06-19T07:15:37.042Z,1001.29
2019-06-19T07:20:32.650Z,1001.26
2019-06-19T07:25:29.102Z,1001.23
2019-06-19T07:30:25.392Z,1001.09
2019-06-19T07:35:21.502Z,1001.07
2019-06-19T07:40:17.518Z,1001.02
2019-06-19T07:45:13.689Z,1001.04
2019-06-19T07:50:13.297Z,1000.98
2019-06-19T07:55:14.249Z,1000.96
2019-06-19T08:00:12.516Z,1001.11
2019-06-19T08:05:10.365Z,1001.09
2019-06-19T08:10:07.922Z,1001.03
2019-06-19T08:15:04.949Z,1000.96
2019-06-19T08:20:02.922Z,1000.85
2019-06-19T08:24:59.616Z,1000.78
2019-06-19T08:29:55.954Z,1000.81
2019-06-19T08:34:52.354Z,1000.82
2019-06-19T08:39:48.727Z,1000.88
2019-06-19T08:44:46.176Z,1000.80
2019-06-19T08:49:42.463Z,1000.87
2019-06-19T08:54:38.894Z,1000.75
2019-06-19T08:59:36.316Z,1000.64
2019-06-19T09:04:35.112Z,1000.80
2019-06-19T09:09:30.869Z,1000.71
2019-06-19T09:14:27.248Z,1000.66
2019-06-19T09:19:24.429Z,1000.56
2019-06-19T09:24:20.402Z,1000.57
2019-06-19T09:29:14.841Z,1000.50
2019-06-19T09:34:09.691Z,1000.64
2019-06-19T09:39:05.310Z,1000.57
2019-06-19T09:43:59.343Z,1000.66
2019-06-19T09:48:54.151Z,1000.74
2019-06-19T09:53:50.230Z,1000.95
2019-06-19T09:58:47.824Z,1001.07
2019-06-19T10:03:44.090Z,1001.11
2019-06-19T10:08:41.875Z,1000.91
2019-06-19T10:13:36.575Z,1000.94
2019-06-19T10:18:32.730Z,1000.87
2019-06-19T10:23:33.593Z,1000.94
2019-06-19T10:28:29.573Z,1000.88
2019-06-19T10:33:26.655Z,1000.74
2019-06-19T10:38:24.258Z,1000.60
2019-06-19T10:43:18.224Z,1000.52
2019-06-19T10:48:12.369Z,1000.55
2019-06-19T10:53:07.390Z,1000.67
2019-06-19T10:58:02.877Z,1000.45
2019-06-19T11:02:59.505Z,1000.37
2019-06-19T11:07:55.712Z,1000.40
2019-06-19T11:12:51.477Z,1000.24
2019-06-19T11:17:47.115Z,1000.18
2019-06-19T11:22:43.642Z,1000.33
2019-06-19T11:27:42.719Z,1000.58
2019-06-19T11:32:41.138Z,1000.49
2019-06-19T11:37:39.719Z,1000.50
2019-06-19T11:42:37.795Z,1000.47
2019-06-19T11:47:32.338Z,1000.38
2019-06-19T11:52:28.632Z,1000.34
2019-06-19T11:57:26.633Z,1000.31
2019-06-19T12:02:21.763Z,1000.23
2019-06-19T12:07:19.094Z,1000.32
2019-06-19T12:12:17.816Z,1000.22
2019-06-19T12:17:14.684Z,1000.19
2019-06-19T12:22:11.222Z,1000.26
2019-06-19T12:27:07.120Z,1000.36
2019-06-19T12:32:02.539Z,1000.24
2019-06-19T12:36:59.532Z,1000.19
2019-06-19T12:41:56.658Z,1000.15
2019-06-19T12:46:53.683Z,1000.16
2019-06-19T12:51:50.679Z,1000.18
2019-06-19T12:56:47.771Z,1000.12
2019-06-19T13:01:44.587Z,1000.21
2019-06-19T13:06:47.139Z,1000.20
2019-06-19T13:11:41.829Z,1000.29
2019-06-19T13:16:37.295Z,1000.19
2019-06-19T13:21:33.031Z,1000.26
2019-06-19T13:26:27.732Z,1000.38
2019-06-19T13:31:22.770Z,1000.30
2019-06-19T13:36:18.941Z,1000.39
2019-06-19T13:41:21.354Z,1000.44
2019-06-19T13:46:14.763Z,1000.46
2019-06-19T13:51:10.166Z,1000.37
2019-06-19T13:56:06.295Z,1000.46
2019-06-19T14:01:03.191Z,1000.39
2019-06-19T14:05:58.488Z,1000.12
2019-06-19T14:10:53.629Z,1000.03
2019-06-19T14:15:50.606Z,1000.01
2019-06-19T14:20:47.129Z,1000.51
2019-06-19T14:25:42.313Z,1001.20
2019-06-19T14:30:37.374Z,1000.95
2019-06-19T14:35:32.239Z,1000.92
2019-06-19T14:40:27.600Z,1000.80
2019-06-19T14:45:23.512Z,1000.69
2019-06-19T14:50:20.123Z,1000.45
2019-06-19T14:55:16.677Z,1000.39
2019-06-19T15:00:14.007Z,1000.46
2019-06-19T15:05:11.077Z,1000.34
2019-06-19T15:10:06.686Z,1000.27
2019-06-19T15:15:03.833Z,1000.26
2019-06-19T15:19:59.907Z,1000.26
2019-06-19T15:24:55.879Z,1000.23
2019-06-19T15:29:52.139Z,1000.14
2019-06-19T15:34:49.132Z,999.97
2019-06-19T15:39:44.709Z,999.84
2019-06-19T15:44:41.239Z,999.82
2019-06-19T15:49:37.632Z,999.80
2019-06-19T15:54:32.825Z,999.84
2019-06-19T15:59:28.652Z,999.77
2019-06-19T16:04:24.642Z,999.70
2019-06-19T16:09:20.613Z,999.70
2019-06-19T16:14:16.605Z,999.64
2019-06-19T16:19:12.655Z,999.56
2019-06-19T16:24:08.541Z,999.46
2019-06-19T16:29:04.791Z,999.55
2019-06-19T16:34:00.945Z,999.61
2019-06-19T16:38:56.917Z,999.46
2019-06-19T16:43:52.890Z,999.41
2019-06-19T16:48:49.839Z,999.46
2019-06-19T16:53:45.666Z,999.54
2019-06-19T16:58:41.569Z,999.61
2019-06-19T17:03:37.669Z,999.69
2019-06-19T17:08:34.519Z,999.80
2019-06-19T17:13:30.263Z,999.84
2019-06-19T17:18:25.993Z,999.89
2019-06-19T17:23:22.019Z,1000.02
2019-06-19T17:28:17.956Z,1000.04
2019-06-19T17:33:15.067Z,999.91
2019-06-19T17:38:10.972Z,999.88
2019-06-19T17:43:07.263Z,999.96
2019-06-19T17:48:06.179Z,999.96
2019-06-19T17:53:01.487Z,999.99
2019-06-19T17:57:58.422Z,999.95
2019-06-19T18:02:53.891Z,1000.17
2019-06-19T18:07:49.972Z,1001.04
2019-06-19T18:12:46.409Z,1000.69
2019-06-19T18:17:42.278Z,1000.71
2019-06-19T18:22:37.164Z,1000.94
2019-06-19T18:27:32.237Z,1000.46
2019-06-19T18:32:27.581Z,1000.20
2019-06-19T18:37:23.308Z,1000.25
2019-06-19T18:42:19.194Z,1000.46
2019-06-19T18:47:14.941Z,1000.97
2019-06-19T18:52:10.890Z,1001.49
2019-06-19T18:57:08.747Z,1001.94
2019-06-19T19:02:03.654Z,1001.65
2019-06-19T19:06:59.956Z,1001.80
2019-06-19T19:11:56.905Z,1001.78
2019-06-19T19:16:53.864Z,1001.82
2019-06-19T19:21:49.294Z,1002.03
2019-06-19T19:26:44.921Z,1002.07
2019-06-19T19:31:41.209Z,1002.05
2019-06-19T19:36:37.235Z,1002.05
2019-06-19T19:41:34.021Z,1001.56
2019-06-19T19:46:29.631Z,1000.96
2019-06-19T19:51:25.506Z,1001.32
2019-06-19T19:56:21.872Z,1001.53
2019-06-19T20:01:17.707Z,1001.38
2019-06-19T20:06:13.786Z,1001.62
2019-06-19T20:11:09.764Z,1001.69
2019-06-19T20:16:05.538Z,1001.75
2019-06-19T20:21:01.604Z,1001.56
2019-06-19T20:25:57.421Z,1001.48
2019-06-19T20:30:53.713Z,1001.53
2019-06-19T20:35:49.930Z,1001.55
2019-06-19T20:41:02.119Z,1001.55
2019-06-19T20:45:45.410Z,1001.50
2019-06-19T20:50:41.401Z,1001.53
2019-06-19T20:55:38.764Z,1001.56
2019-06-19T21:00:34.277Z,1001.78
2019-06-19T21:05:30.695Z,1001.76
2019-06-19T21:10:26.465Z,1001.82
2019-06-19T21:15:22.176Z,1001.80
2019-06-19T21:20:19.114Z,1001.92
2019-06-19T21:25:15.855Z,1001.89
2019-06-19T21:30:12.407Z,1001.82
2019-06-19T21:35:07.900Z,1001.73
2019-06-19T21:40:04.220Z,1001.70
2019-06-19T21:44:59.914Z,1001.72
2019-06-19T21:49:55.814Z,1001.86
2019-06-19T21:54:51.804Z,1001.75
2019-06-19T21:59:47.837Z,1001.71
2019-06-19T22:04:43.488Z,1001.93
2019-06-19T22:09:39.297Z,1001.82
2019-06-19T22:14:35.132Z,1001.67
2019-06-19T22:19:31.076Z,1001.94
2019-06-19T22:24:27.090Z,1001.97
2019-06-19T22:29:22.878Z,1002.04
2019-06-19T22:34:18.730Z,1002.09
2019-06-19T22:39:14.492Z,1002.12
2019-06-19T22:44:10.331Z,1002.12
2019-06-19T22:49:06.773Z,1002.20
2019-06-19T22:54:02.776Z,1002.06
2019-06-19T22:58:58.547Z,1002.11
2019-06-19T23:03:55.023Z,1002.10
2019-06-19T23:08:50.891Z,1002.04
2019-06-19T23:13:47.053Z,1002.03
2019-06-19T23:18:43.902Z,1001.94
2019-06-19T23:23:39.540Z,1001.94
2019-06-19T23:28:35.828Z,1001.88
2019-06-19T23:33:31.771Z,1001.64
2019-06-19T23:38:27.748Z,1001.64
2019-06-19T23:43:24.709Z,1001.57
2019-06-19T23:48:20.177Z,1001.52
2019-06-19T23:53:16.048Z,1001.65
2019-06-19T23:58:12.576Z,1001.74
